createdAt,value
2017-07-30T00:00:50.436Z,23.80
2017-07-30T00:03:17.926Z,23.80
2017-07-30T00:05:45.393Z,23.70
2017-07-30T00:08:12.893Z,23.70
2017-07-30T00:10:41.137Z,23.70
2017-07-30T00:13:08.626Z,23.70
2017-07-30T00:15:36.233Z,23.70
2017-07-30T00:18:03.730Z,23.70
2017-07-30T00:20:31.192Z,23.70
2017-07-30T00:22:59.424Z,23.70
2017-07-30T00:25:26.906Z,23.70
2017-07-30T00:27:54.385Z,23.70
2017-07-30T00:30:22.610Z,23.60
2017-07-30T00:32:50.109Z,23.60
2017-07-30T00:35:17.583Z,23.60
2017-07-30T00:37:45.066Z,23.60
2017-07-30T00:40:12.656Z,23.60
2017-07-30T00:42:40.128Z,23.60
2017-07-30T00:45:07.592Z,23.50
2017-07-30T00:47:35.238Z,23.40
2017-07-30T00:50:02.695Z,23.50
2017-07-30T00:52:30.182Z,23.50
2017-07-30T00:54:58.432Z,23.40
2017-07-30T00:57:25.992Z,23.40
2017-07-30T00:59:53.477Z,23.40
2017-07-30T01:02:21.713Z,23.40
2017-07-30T01:04:49.197Z,23.30
2017-07-30T01:07:17.424Z,23.30
2017-07-30T01:09:44.909Z,23.30
2017-07-30T01:12:12.380Z,23.30
2017-07-30T01:14:40.617Z,23.20
2017-07-30T01:17:08.097Z,23.20
2017-07-30T01:19:35.577Z,23.20
2017-07-30T01:22:03.816Z,23.10
2017-07-30T01:24:31.297Z,23.10
2017-07-30T01:26:58.766Z,23.10
2017-07-30T01:29:27.023Z,23.10
2017-07-30T01:31:54.486Z,23.00
2017-07-30T01:34:21.953Z,23.00
2017-07-30T01:36:50.177Z,23.00
2017-07-30T01:39:17.657Z,23.00
2017-07-30T01:41:45.128Z,23.00
2017-07-30T01:44:12.588Z,22.90
2017-07-30T01:46:40.090Z,22.90
2017-07-30T01:49:07.641Z,22.90
2017-07-30T01:51:35.120Z,22.90
2017-07-30T01:54:02.577Z,22.90
2017-07-30T01:56:30.115Z,22.80
2017-07-30T01:58:57.582Z,22.80
2017-07-30T02:01:25.061Z,22.80
2017-07-30T02:03:52.538Z,22.80
2017-07-30T02:06:20.005Z,22.80
2017-07-30T02:08:47.476Z,22.80
2017-07-30T02:11:14.934Z,22.80
2017-07-30T02:13:42.395Z,22.80
2017-07-30T02:16:09.866Z,22.80
2017-07-30T02:18:37.307Z,22.80
2017-07-30T02:21:04.799Z,22.80
2017-07-30T02:23:32.261Z,22.80
2017-07-30T02:25:59.733Z,22.80
2017-07-30T02:28:27.825Z,22.80
2017-07-30T02:30:55.283Z,22.70
2017-07-30T02:33:22.789Z,22.50
2017-07-30T02:35:50.266Z,22.50
2017-07-30T02:38:17.885Z,22.50
2017-07-30T02:40:45.372Z,22.50
2017-07-30T02:43:12.841Z,22.50
2017-07-30T02:45:40.313Z,22.50
2017-07-30T02:48:07.773Z,22.50
2017-07-30T02:50:35.262Z,22.50
2017-07-30T02:53:03.540Z,22.40
2017-07-30T02:55:31.022Z,22.40
2017-07-30T02:57:58.541Z,22.40
2017-07-30T03:00:26.765Z,22.30
2017-07-30T03:02:54.249Z,22.30
2017-07-30T03:05:21.722Z,22.30
2017-07-30T03:07:49.201Z,22.30
2017-07-30T03:10:21.926Z,22.30
2017-07-30T03:12:49.402Z,22.30
2017-07-30T03:15:16.875Z,22.20
2017-07-30T03:17:45.097Z,22.10
2017-07-30T03:20:12.566Z,22.10
2017-07-30T03:22:40.033Z,22.20
2017-07-30T03:25:07.505Z,22.10
2017-07-30T03:27:34.964Z,22.10
2017-07-30T03:30:02.502Z,22.10
2017-07-30T03:32:29.969Z,22.10
2017-07-30T03:34:57.432Z,22.10
2017-07-30T03:37:24.917Z,22.00
2017-07-30T03:39:53.140Z,22.00
2017-07-30T03:42:20.622Z,22.00
2017-07-30T03:44:48.081Z,21.90
2017-07-30T03:47:16.030Z,21.90
2017-07-30T03:49:43.512Z,21.80
2017-07-30T03:52:10.977Z,21.80
2017-07-30T03:54:38.430Z,21.80
2017-07-30T03:57:06.653Z,21.70
2017-07-30T03:59:34.149Z,21.70
2017-07-30T04:02:01.614Z,21.80
2017-07-30T04:04:29.068Z,21.80
2017-07-30T04:06:56.548Z,21.80
2017-07-30T04:09:24.013Z,21.80
2017-07-30T04:11:51.497Z,21.90
2017-07-30T04:14:18.964Z,21.80
2017-07-30T04:16:46.445Z,21.80
2017-07-30T04:19:13.911Z,21.80
2017-07-30T04:21:41.376Z,21.80
2017-07-30T04:24:09.630Z,21.80
2017-07-30T04:26:37.106Z,21.70
2017-07-30T04:29:05.352Z,21.80
2017-07-30T04:31:32.814Z,21.80
2017-07-30T04:34:00.292Z,21.80
2017-07-30T04:36:28.530Z,21.80
2017-07-30T04:38:56.001Z,21.80
2017-07-30T04:41:23.486Z,21.80
2017-07-30T04:43:51.729Z,21.80
2017-07-30T04:46:19.208Z,21.80
2017-07-30T04:48:46.684Z,21.80
2017-07-30T04:51:14.146Z,21.80
2017-07-30T04:53:42.114Z,21.80
2017-07-30T04:56:09.574Z,21.80
2017-07-30T04:58:37.045Z,21.80
2017-07-30T05:01:04.509Z,21.90
2017-07-30T05:03:32.005Z,21.90
2017-07-30T05:05:59.469Z,22.00
2017-07-30T05:08:26.928Z,22.00
2017-07-30T05:10:55.177Z,21.90
2017-07-30T05:13:22.646Z,21.90
2017-07-30T05:15:50.112Z,21.90
2017-07-30T05:18:17.757Z,21.90
2017-07-30T05:20:45.233Z,21.90
2017-07-30T05:23:12.688Z,21.90
2017-07-30T05:25:40.176Z,21.90
2017-07-30T05:28:07.785Z,21.90
2017-07-30T05:30:35.256Z,21.90
2017-07-30T05:33:02.797Z,22.00
2017-07-30T05:35:30.274Z,22.00
2017-07-30T05:37:57.775Z,22.10
2017-07-30T05:40:25.257Z,22.10
2017-07-30T05:42:52.718Z,22.20
2017-07-30T05:45:20.214Z,22.30
2017-07-30T05:47:48.473Z,22.50
2017-07-30T05:50:15.968Z,22.50
2017-07-30T05:52:44.180Z,22.60
2017-07-30T05:55:11.649Z,22.70
2017-07-30T05:57:39.135Z,22.70
2017-07-30T06:00:06.639Z,22.80
2017-07-30T06:02:34.099Z,22.90
2017-07-30T06:05:01.568Z,22.90
2017-07-30T06:07:29.044Z,23.00
2017-07-30T06:09:56.518Z,23.00
2017-07-30T06:12:24.764Z,23.20
2017-07-30T06:14:52.245Z,23.20
2017-07-30T06:17:20.481Z,23.20
2017-07-30T06:19:47.954Z,23.20
2017-07-30T06:22:15.421Z,23.30
2017-07-30T06:24:42.909Z,23.30
2017-07-30T06:27:10.368Z,23.30
2017-07-30T06:29:37.849Z,23.40
2017-07-30T06:32:05.315Z,23.40
2017-07-30T06:34:32.766Z,23.40
2017-07-30T06:37:00.234Z,23.40
2017-07-30T06:39:27.735Z,23.40
2017-07-30T06:41:55.958Z,23.40
2017-07-30T06:44:23.426Z,23.40
2017-07-30T06:46:50.889Z,23.40
2017-07-30T06:49:18.524Z,23.30
2017-07-30T06:51:45.985Z,23.30
2017-07-30T06:54:13.440Z,23.40
2017-07-30T06:56:40.917Z,23.30
2017-07-30T06:59:08.387Z,23.30
2017-07-30T07:01:35.871Z,23.30
2017-07-30T07:04:04.093Z,23.30
2017-07-30T07:06:31.577Z,23.30
2017-07-30T07:08:59.157Z,23.30
2017-07-30T07:11:27.408Z,23.40
2017-07-30T07:13:54.873Z,23.40
2017-07-30T07:16:22.326Z,23.40
2017-07-30T07:18:49.801Z,23.30
2017-07-30T07:21:18.044Z,23.40
2017-07-30T07:23:45.521Z,23.40
2017-07-30T07:26:13.089Z,23.40
2017-07-30T07:28:41.331Z,23.40
2017-07-30T07:31:08.805Z,23.40
2017-07-30T07:33:36.277Z,23.40
2017-07-30T07:36:04.564Z,23.50
2017-07-30T07:38:32.049Z,23.50
2017-07-30T07:40:59.505Z,23.60
2017-07-30T07:43:26.987Z,23.70
2017-07-30T07:45:54.469Z,23.60
2017-07-30T07:48:21.928Z,23.60
2017-07-30T07:50:49.390Z,23.70
2017-07-30T07:53:16.875Z,23.70
2017-07-30T07:55:44.329Z,23.80
2017-07-30T07:58:11.797Z,23.80
2017-07-30T08:00:39.278Z,23.90
2017-07-30T08:03:06.739Z,24.00
2017-07-30T08:05:34.253Z,24.10
2017-07-30T08:08:01.722Z,24.10
2017-07-30T08:10:29.178Z,24.10
2017-07-30T08:12:56.658Z,24.00
2017-07-30T08:15:24.112Z,24.00
2017-07-30T08:17:51.602Z,23.90
2017-07-30T08:20:19.090Z,23.90
2017-07-30T08:22:46.566Z,24.00
2017-07-30T08:25:14.030Z,24.00
2017-07-30T08:27:41.492Z,23.90
2017-07-30T08:30:08.969Z,23.80
2017-07-30T08:32:36.506Z,23.90
2017-07-30T08:35:03.968Z,24.10
2017-07-30T08:37:31.444Z,24.20
2017-07-30T08:39:58.925Z,24.30
2017-07-30T08:42:27.172Z,24.10
2017-07-30T08:44:54.621Z,24.10
2017-07-30T08:47:22.125Z,24.10
2017-07-30T08:49:50.381Z,24.30
2017-07-30T08:52:17.887Z,24.30
2017-07-30T08:54:45.362Z,24.20
2017-07-30T08:57:12.967Z,24.10
2017-07-30T08:59:40.433Z,24.00
2017-07-30T09:02:08.707Z,24.00
2017-07-30T09:04:36.930Z,24.00
2017-07-30T09:07:04.393Z,24.00
2017-07-30T09:09:31.870Z,24.10
2017-07-30T09:11:59.350Z,24.20
2017-07-30T09:14:27.728Z,24.30
2017-07-30T09:16:55.955Z,24.30
2017-07-30T09:19:23.436Z,24.30
2017-07-30T09:21:50.893Z,24.40
2017-07-30T09:24:18.368Z,24.50
2017-07-30T09:26:46.601Z,24.50
2017-07-30T09:29:14.061Z,24.60
2017-07-30T09:31:41.553Z,24.60
2017-07-30T09:34:09.787Z,24.50
2017-07-30T09:36:37.266Z,24.50
2017-07-30T09:39:04.760Z,24.50
2017-07-30T09:41:32.212Z,24.50
2017-07-30T09:43:59.681Z,24.50
2017-07-30T09:46:27.145Z,24.60
2017-07-30T09:48:54.639Z,24.50
2017-07-30T09:51:22.096Z,24.50
2017-07-30T09:53:49.556Z,24.60
2017-07-30T09:56:17.044Z,24.60
2017-07-30T09:58:45.287Z,24.80
2017-07-30T10:01:12.761Z,24.70
2017-07-30T10:03:40.227Z,24.80
2017-07-30T10:06:08.478Z,24.90
2017-07-30T10:08:35.960Z,24.90
2017-07-30T10:11:04.185Z,24.80
2017-07-30T10:13:31.692Z,24.80
2017-07-30T10:15:59.165Z,24.80
2017-07-30T10:18:27.475Z,24.80
2017-07-30T10:20:55.215Z,24.80
2017-07-30T10:23:22.790Z,24.90
2017-07-30T10:25:50.266Z,25.00
2017-07-30T10:28:18.010Z,25.10
2017-07-30T10:53:07.376Z,24.70
2017-07-30T12:15:08.390Z,25.00
2017-07-30T12:17:35.854Z,25.00
2017-07-30T12:20:03.397Z,24.90
2017-07-30T12:22:30.979Z,25.00
2017-07-30T12:24:59.577Z,25.00
2017-07-30T12:27:27.021Z,25.00
2017-07-30T12:29:55.333Z,24.60
2017-07-30T12:39:50.222Z,24.40
2017-07-30T12:42:17.693Z,24.50
2017-07-30T12:44:46.608Z,24.50
2017-07-30T12:47:15.382Z,24.50
2017-07-30T12:49:42.975Z,24.50
2017-07-30T12:52:10.461Z,24.60
2017-07-30T12:54:37.935Z,24.60
2017-07-30T12:57:05.405Z,24.60
2017-07-30T12:59:32.913Z,24.50
2017-07-30T13:02:01.565Z,24.40
2017-07-30T13:06:58.189Z,24.60
2017-07-30T13:09:25.645Z,24.70
2017-07-30T13:11:53.115Z,25.00
2017-07-30T13:14:20.601Z,25.20
2017-07-30T13:16:48.070Z,25.50
2017-07-30T13:19:15.561Z,25.60
2017-07-30T13:21:43.093Z,25.50
2017-07-30T13:24:10.604Z,25.80
2017-07-30T13:26:38.084Z,25.90
2017-07-30T13:29:05.557Z,25.80
2017-07-30T13:31:33.053Z,25.90
2017-07-30T13:34:00.514Z,25.90
2017-07-30T13:36:29.138Z,25.80
2017-07-30T13:38:56.645Z,25.90
2017-07-30T13:41:24.109Z,25.90
2017-07-30T13:43:51.640Z,25.60
2017-07-30T13:46:19.102Z,25.40
2017-07-30T13:48:46.580Z,25.70
2017-07-30T13:51:14.046Z,26.00
2017-07-30T13:53:41.538Z,26.30
2017-07-30T13:56:09.057Z,26.40
2017-07-30T13:58:36.614Z,26.30
2017-07-30T14:01:05.032Z,26.30
2017-07-30T14:06:01.338Z,25.50
2017-07-30T14:08:28.814Z,25.40
2017-07-30T14:10:56.283Z,25.20
2017-07-30T14:13:23.764Z,25.20
2017-07-30T14:15:51.258Z,25.20
2017-07-30T14:18:18.724Z,25.40
2017-07-30T14:20:46.199Z,25.50
2017-07-30T14:23:13.684Z,25.60
2017-07-30T14:25:41.175Z,25.50
2017-07-30T14:28:08.663Z,25.40
2017-07-30T14:30:36.150Z,25.40
2017-07-30T14:33:03.638Z,25.40
2017-07-30T14:35:31.124Z,25.30
2017-07-30T14:37:58.581Z,25.10
2017-07-30T14:40:26.069Z,25.00
2017-07-30T14:42:54.329Z,24.90
2017-07-30T14:45:21.794Z,24.90
2017-07-30T14:47:50.035Z,25.10
2017-07-30T14:50:17.506Z,25.10
2017-07-30T14:52:44.964Z,25.20
2017-07-30T14:55:12.450Z,25.50
2017-07-30T14:57:40.678Z,25.80
2017-07-30T15:00:08.153Z,25.80
2017-07-30T15:02:35.636Z,25.60
2017-07-30T15:05:03.872Z,25.30
2017-07-30T15:07:31.354Z,25.30
2017-07-30T15:09:58.881Z,25.20
2017-07-30T15:12:26.397Z,25.20
2017-07-30T15:14:53.867Z,25.30
2017-07-30T15:17:21.352Z,25.40
2017-07-30T15:19:48.844Z,25.30
2017-07-30T15:22:17.082Z,25.20
2017-07-30T15:24:44.590Z,25.20
2017-07-30T15:27:12.055Z,25.10
2017-07-30T15:29:39.641Z,25.10
2017-07-30T15:32:07.101Z,25.00
2017-07-30T15:34:34.577Z,24.90
2017-07-30T15:37:02.058Z,24.90
2017-07-30T15:39:29.562Z,24.80
2017-07-30T15:41:57.025Z,24.90
2017-07-30T15:44:24.494Z,25.10
2017-07-30T15:46:51.983Z,25.30
2017-07-30T15:49:19.436Z,25.30
2017-07-30T15:51:46.909Z,25.30
2017-07-30T15:54:14.377Z,25.10
2017-07-30T15:56:41.885Z,25.10
2017-07-30T15:59:09.367Z,25.10
2017-07-30T16:01:37.581Z,25.10
2017-07-30T16:04:05.814Z,25.10
2017-07-30T16:06:33.277Z,25.10
2017-07-30T16:09:01.571Z,24.90
2017-07-30T16:11:29.044Z,24.90
2017-07-30T16:13:56.551Z,24.80
2017-07-30T16:16:24.112Z,24.80
2017-07-30T16:18:51.662Z,24.80
2017-07-30T16:21:19.127Z,24.90
2017-07-30T16:23:46.616Z,25.00
2017-07-30T16:26:14.128Z,25.10
2017-07-30T16:28:41.594Z,24.90
2017-07-30T16:31:09.060Z,24.90
2017-07-30T16:33:36.529Z,24.90
2017-07-30T16:36:04.780Z,24.80
2017-07-30T16:38:32.261Z,24.80
2017-07-30T16:41:00.485Z,24.60
2017-07-30T16:43:28.026Z,24.60
2017-07-30T16:45:55.479Z,24.60
2017-07-30T16:48:22.973Z,24.50
2017-07-30T16:50:50.455Z,24.50
2017-07-30T16:53:17.920Z,24.40
2017-07-30T16:55:46.152Z,24.40
2017-07-30T16:58:13.652Z,24.40
2017-07-30T17:00:41.110Z,24.40
2017-07-30T17:03:09.377Z,24.40
2017-07-30T17:05:36.852Z,24.40
2017-07-30T17:08:05.105Z,24.60
2017-07-30T17:10:32.560Z,24.60
2017-07-30T17:13:00.178Z,24.70
2017-07-30T17:15:27.765Z,24.80
2017-07-30T17:17:55.240Z,25.00
2017-07-30T17:20:22.854Z,25.10
2017-07-30T17:22:50.313Z,25.10
2017-07-30T17:25:17.857Z,25.10
2017-07-30T17:27:45.328Z,25.00
2017-07-30T17:30:12.807Z,25.00
2017-07-30T17:32:40.274Z,25.00
2017-07-30T17:35:07.734Z,25.00
2017-07-30T17:37:35.202Z,25.00
2017-07-30T17:40:02.673Z,24.90
2017-07-30T17:42:30.948Z,24.70
2017-07-30T17:44:59.205Z,24.70
2017-07-30T17:47:26.867Z,24.60
2017-07-30T17:49:54.354Z,24.50
2017-07-30T17:52:22.607Z,24.30
2017-07-30T17:54:50.091Z,24.30
2017-07-30T17:57:18.317Z,24.20
2017-07-30T17:59:45.797Z,24.20
2017-07-30T18:02:14.561Z,24.20
2017-07-30T18:04:42.028Z,24.20
2017-07-30T18:07:09.529Z,24.20
2017-07-30T18:09:37.007Z,24.30
2017-07-30T18:12:04.486Z,24.20
2017-07-30T18:14:31.947Z,24.10
2017-07-30T18:16:59.412Z,24.10
2017-07-30T18:19:27.089Z,24.10
2017-07-30T18:21:54.545Z,24.10
2017-07-30T18:24:22.789Z,24.10
2017-07-30T18:26:50.269Z,24.00
2017-07-30T18:29:17.852Z,24.00
2017-07-30T18:31:45.324Z,24.00
2017-07-30T18:34:12.814Z,23.90
2017-07-30T18:36:40.299Z,23.90
2017-07-30T18:39:07.764Z,23.80
2017-07-30T18:41:35.275Z,23.80
2017-07-30T18:44:02.731Z,23.80
2017-07-30T18:46:30.214Z,23.80
2017-07-30T18:48:57.713Z,23.60
2017-07-30T18:51:25.192Z,23.50
2017-07-30T18:53:52.663Z,23.40
2017-07-30T18:56:20.170Z,23.40
2017-07-30T18:58:47.651Z,23.40
2017-07-30T19:01:15.134Z,23.40
2017-07-30T19:03:42.614Z,23.30
2017-07-30T19:06:10.085Z,23.30
2017-07-30T19:08:38.324Z,23.20
2017-07-30T19:11:05.823Z,23.20
2017-07-30T19:13:34.066Z,23.10
2017-07-30T19:16:01.545Z,23.10
2017-07-30T19:18:29.017Z,23.10
2017-07-30T19:20:56.485Z,23.10
2017-07-30T19:23:23.973Z,23.00
2017-07-30T19:25:51.436Z,23.00
2017-07-30T19:28:18.905Z,23.00
2017-07-30T19:30:46.390Z,22.90
2017-07-30T19:33:13.886Z,22.90
2017-07-30T19:35:41.342Z,22.90
2017-07-30T19:38:08.818Z,22.80
2017-07-30T19:40:36.305Z,22.70
2017-07-30T19:43:03.789Z,22.80
2017-07-30T19:45:31.309Z,22.80
2017-07-30T19:47:58.844Z,22.70
2017-07-30T19:50:26.327Z,22.70
2017-07-30T19:52:53.804Z,22.70
2017-07-30T19:55:21.262Z,22.70
2017-07-30T19:57:49.509Z,22.60
2017-07-30T20:00:16.997Z,22.60
2017-07-30T20:02:44.473Z,22.60
2017-07-30T20:05:11.956Z,22.50
2017-07-30T20:07:39.451Z,22.50
2017-07-30T20:10:06.917Z,22.40
2017-07-30T20:12:34.399Z,22.30
2017-07-30T20:15:02.675Z,22.30
2017-07-30T20:17:30.141Z,22.20
2017-07-30T20:19:57.618Z,22.30
2017-07-30T20:22:25.111Z,22.30
2017-07-30T20:24:52.580Z,22.30
2017-07-30T20:27:20.069Z,22.30
2017-07-30T20:29:47.546Z,22.30
2017-07-30T20:32:15.027Z,22.30
2017-07-30T20:34:42.510Z,22.30
2017-07-30T20:37:10.748Z,22.40
2017-07-30T20:39:38.321Z,22.40
2017-07-30T20:42:05.791Z,22.40
2017-07-30T20:44:33.302Z,22.40
2017-07-30T20:47:00.762Z,22.40
2017-07-30T20:49:28.245Z,22.40
2017-07-30T20:51:55.754Z,22.40
2017-07-30T20:54:23.222Z,22.30
2017-07-30T20:56:51.581Z,22.30
2017-07-30T20:59:19.062Z,22.30
2017-07-30T21:01:46.526Z,22.20
2017-07-30T21:04:14.008Z,22.10
2017-07-30T21:06:41.501Z,22.10
2017-07-30T21:09:08.983Z,22.10
2017-07-30T21:11:36.454Z,22.10
2017-07-30T21:14:04.081Z,22.10
2017-07-30T21:16:31.589Z,22.10
2017-07-30T21:18:59.082Z,22.00
2017-07-30T21:21:27.330Z,22.00
2017-07-30T21:23:54.810Z,21.90
2017-07-30T21:26:22.317Z,22.00
2017-07-30T21:28:49.800Z,22.00
2017-07-30T21:31:17.339Z,22.00
2017-07-30T21:33:44.825Z,22.00
2017-07-30T21:36:12.454Z,22.00
2017-07-30T21:38:39.960Z,22.00
2017-07-30T21:41:08.210Z,21.80
2017-07-30T21:43:35.700Z,21.80
2017-07-30T21:46:03.918Z,21.80
2017-07-30T21:48:31.409Z,21.80
2017-07-30T21:50:58.877Z,21.90
2017-07-30T21:53:26.381Z,21.90
2017-07-30T21:55:53.821Z,21.90
2017-07-30T21:58:21.301Z,21.80
2017-07-30T22:00:48.821Z,21.60
2017-07-30T22:03:17.058Z,21.60
2017-07-30T22:05:44.565Z,21.60
2017-07-30T22:08:12.024Z,21.70
2017-07-30T22:10:39.503Z,21.70
2017-07-30T22:13:06.996Z,21.70
2017-07-30T22:15:34.454Z,21.70
2017-07-30T22:18:02.004Z,21.60
2017-07-30T22:20:29.455Z,21.60
2017-07-30T22:22:57.044Z,21.60
2017-07-30T22:25:24.497Z,21.60
2017-07-30T22:27:51.985Z,21.60
2017-07-30T22:30:19.477Z,21.60
2017-07-30T22:32:46.945Z,21.60
2017-07-30T22:35:14.426Z,21.60
2017-07-30T22:37:42.653Z,21.60
2017-07-30T22:40:10.112Z,21.60
2017-07-30T22:42:37.588Z,21.60
2017-07-30T22:45:05.958Z,21.60
2017-07-30T22:47:33.454Z,21.70
2017-07-30T22:50:00.907Z,21.70
2017-07-30T22:52:29.153Z,21.70
2017-07-30T22:54:56.637Z,21.70
2017-07-30T22:57:24.137Z,21.50
2017-07-30T22:59:51.599Z,21.40
2017-07-30T23:02:19.056Z,21.40
2017-07-30T23:04:46.530Z,21.40
2017-07-30T23:07:14.021Z,21.30
2017-07-30T23:09:42.244Z,21.10
2017-07-30T23:12:09.706Z,21.10
2017-07-30T23:14:37.239Z,21.10
2017-07-30T23:17:04.694Z,21.00
2017-07-30T23:19:32.181Z,21.00
2017-07-30T23:21:59.697Z,20.90
2017-07-30T23:24:27.942Z,20.80
2017-07-30T23:26:55.405Z,20.80
2017-07-30T23:29:22.889Z,20.70
2017-07-30T23:31:51.117Z,20.60
2017-07-30T23:34:18.592Z,20.60
2017-07-30T23:36:46.841Z,20.60
2017-07-30T23:39:14.309Z,20.50
2017-07-30T23:41:41.845Z,20.60
2017-07-30T23:44:09.318Z,20.50
2017-07-30T23:46:36.798Z,20.50
2017-07-30T23:49:05.029Z,20.40
2017-07-30T23:51:32.491Z,20.40
2017-07-30T23:53:59.982Z,20.40
2017-07-30T23:56:27.452Z,20.40
2017-07-30T23:58:54.920Z,20.40
